Time;durP1;ratioP1;P1;durP2;ratioP2;P2;SDS_P1;SDS_P2;PMS_P1;PMS_P2;Temp;Humidity;BMP_temperature;BMP_pressure;BME280_temperature;BME280_humidity;BME280_pressure;Samples;Min_cycle;Max_cycle;Signal;HPM_P1;HPM_P2
2022/06/07 00:02:19;;;;;;;5.47;4.95;;;;;;;-142.25;100.00;58004.16;4996192;28;20080;-61
2022/06/07 00:04:45;;;;;;;5.10;4.47;;;;;;;-142.25;100.00;58004.16;5012728;28;20038;-61
2022/06/07 00:07:10;;;;;;;5.00;4.47;;;;;;;-142.25;100.00;58004.16;5009322;28;20037;-61
2022/06/07 00:09:36;;;;;;;4.85;4.45;;;;;;;-142.25;100.00;58004.16;5011621;28;20030;-61
2022/06/07 00:12:02;;;;;;;4.88;4.57;;;;;;;-142.25;100.00;58004.16;5015013;28;20461;-61
2022/06/07 00:14:28;;;;;;;4.65;4.22;;;;;;;-142.25;100.00;58004.16;5013419;28;20022;-61
2022/06/07 00:16:56;;;;;;;4.63;4.20;;;;;;;-142.25;100.00;58004.16;5009480;28;20471;-61
2022/06/07 00:19:22;;;;;;;4.38;4.03;;;;;;;-142.25;100.00;58004.16;5009427;28;20038;-61
2022/06/07 00:21:47;;;;;;;4.63;4.22;;;;;;;-142.25;100.00;58004.16;5010078;28;20040;-61
2022/06/07 00:24:13;;;;;;;4.85;4.53;;;;;;;-142.25;100.00;58004.16;5009948;28;20487;-61
2022/06/07 00:26:39;;;;;;;5.63;4.25;;;;;;;-142.25;100.00;58004.16;5009972;28;20029;-61
2022/06/07 00:29:08;;;;;;;5.13;4.63;;;;;;;-142.25;100.00;58004.16;5010936;28;20045;-61
2022/06/07 00:31:35;;;;;;;5.38;4.90;;;;;;;-142.25;100.00;58004.16;5012537;28;20033;-61
2022/06/07 00:34:02;;;;;;;5.45;4.95;;;;;;;-142.25;100.00;58004.16;5010523;28;20080;-61
2022/06/07 00:36:27;;;;;;;4.40;4.07;;;;;;;-142.25;100.00;58004.16;5008908;28;20428;-61
2022/06/07 00:38:53;;;;;;;6.00;4.65;;;;;;;-142.25;100.00;58004.16;5012061;28;20040;-61
2022/06/07 00:41:19;;;;;;;4.80;4.30;;;;;;;-142.25;100.00;58004.16;5013361;28;20029;-61
2022/06/07 00:44:15;;;;;;;4.85;4.35;;;;;;;-142.25;100.00;58004.16;5009248;28;20394;-61
2022/06/07 00:46:43;;;;;;;5.25;4.75;;;;;;;-142.25;100.00;58004.16;5009865;28;20033;-61
2022/06/07 00:49:10;;;;;;;5.00;4.60;;;;;;;-142.25;100.00;58004.16;5012003;28;20470;-61
2022/06/07 00:51:35;;;;;;;4.78;4.32;;;;;;;-142.25;100.00;58004.16;5011672;28;20042;-61
2022/06/07 00:54:00;;;;;;;5.68;4.78;;;;;;;-142.25;100.00;58004.16;5008975;28;20342;-61
2022/06/07 00:56:26;;;;;;;6.95;5.15;;;;;;;-142.25;100.00;58004.16;5010170;28;20026;-61
2022/06/07 00:58:51;;;;;;;5.25;4.78;;;;;;;-142.25;100.00;58004.16;5013305;28;20465;-61
2022/06/07 01:01:17;;;;;;;4.47;4.18;;;;;;;-142.25;100.00;58004.16;5011773;28;20034;-61
2022/06/07 01:03:43;;;;;;;5.13;4.70;;;;;;;-142.25;100.00;58004.16;5008142;28;20040;-61
2022/06/07 01:11:36;;;;;;;4.30;4.00;;;;;;;-142.25;100.00;58004.16;5010508;28;20045;-61
2022/06/07 01:14:02;;;;;;;4.78;4.47;;;;;;;-142.25;100.00;58004.16;5007201;28;20041;-61
2022/06/07 01:16:27;;;;;;;5.55;5.05;;;;;;;-142.25;100.00;58004.16;5008386;28;20038;-61
2022/06/07 01:18:52;;;;;;;4.55;4.15;;;;;;;-142.25;100.00;58004.16;5009367;28;20840;-61
2022/06/07 01:21:33;;;;;;;4.60;4.30;;;;;;;-142.25;100.00;58004.16;5006964;28;20077;-61
2022/06/07 01:23:58;;;;;;;4.28;4.00;;;;;;;-142.25;100.00;58004.16;5007640;28;20029;-62
2022/06/07 01:26:23;;;;;;;5.47;4.95;;;;;;;-142.25;100.00;58004.16;5008625;28;20033;-61
2022/06/07 01:28:50;;;;;;;5.68;4.53;;;;;;;-142.25;100.00;58004.16;5010763;28;20040;-61
2022/06/07 01:31:15;;;;;;;4.57;4.28;;;;;;;-142.25;100.00;58004.16;5008302;28;20708;-61
2022/06/07 01:33:41;;;;;;;4.70;4.20;;;;;;;-142.25;100.00;58004.16;5009338;28;20075;-61
2022/06/07 01:36:12;;;;;;;5.28;4.13;;;;;;;-142.25;100.00;58004.16;4991456;28;20046;-61
2022/06/07 01:38:39;;;;;;;4.75;4.35;;;;;;;-142.25;100.00;58004.16;4991016;28;20447;-61
2022/06/07 01:43:50;;;;;;;;;;;;;;;-142.25;100.00;58004.16;4992262;28;20126;-61
2022/06/07 01:46:16;;;;;;;3.65;3.45;;;;;;;-142.25;100.00;58004.16;4989413;28;20361;-61
2022/06/07 01:48:42;;;;;;;4.72;4.32;;;;;;;-142.25;100.00;58004.16;4988509;28;20577;-61
2022/06/07 01:51:08;;;;;;;4.30;3.90;;;;;;;-142.25;100.00;58004.16;4989510;28;20030;-61
2022/06/07 01:53:35;;;;;;;5.40;4.47;;;;;;;-142.25;100.00;58004.16;4990230;28;20112;-61
2022/06/07 01:56:13;;;;;;;6.80;4.60;;;;;;;-142.25;100.00;58004.16;4987893;28;20062;-61
2022/06/07 01:58:41;;;;;;;4.63;4.22;;;;;;;-142.25;100.00;58004.16;4990818;28;20022;-61
2022/06/07 02:01:08;;;;;;;4.60;4.20;;;;;;;-142.25;100.00;58004.16;4990405;28;20034;-64
2022/06/07 02:03:33;;;;;;;4.35;4.05;;;;;;;-142.25;100.00;58004.16;4994120;28;20038;-61
2022/06/07 02:06:08;;;;;;;4.93;4.53;;;;;;;-142.25;100.00;58004.16;4991329;28;20045;-60
2022/06/07 02:08:37;;;;;;;4.47;4.07;;;;;;;-142.25;100.00;58004.16;4989911;28;20080;-62
2022/06/07 02:11:24;;;;;;;4.43;4.10;;;;;;;-142.25;100.00;58004.16;4990055;28;20056;-61
2022/06/07 02:13:49;;;;;;;4.97;3.92;;;;;;;-142.25;100.00;58004.16;4992013;28;20146;-61
2022/06/07 02:16:16;;;;;;;4.80;4.30;;;;;;;-142.25;100.00;58004.16;4991200;28;20145;-61
2022/06/07 02:18:42;;;;;;;4.97;4.18;;;;;;;-142.25;100.00;58004.16;4989266;28;20054;-61
2022/06/07 02:21:09;;;;;;;5.13;4.70;;;;;;;-142.25;100.00;58004.16;4989735;28;20030;-61
2022/06/07 02:23:36;;;;;;;4.50;4.20;;;;;;;-142.25;100.00;58004.16;4990970;28;20041;-61
2022/06/07 02:26:21;;;;;;;4.45;4.00;;;;;;;-142.25;100.00;58004.16;4987482;28;20049;-61
2022/06/07 02:28:52;;;;;;;4.43;3.60;;;;;;;-142.25;100.00;58004.16;4990009;28;20498;-61
2022/06/07 02:31:18;;;;;;;4.25;3.88;;;;;;;-142.25;100.00;58004.16;4994138;28;20042;-61
2022/06/07 02:33:45;;;;;;;4.43;4.03;;;;;;;-142.25;100.00;58004.16;4996695;28;20547;-61
2022/06/07 02:36:11;;;;;;;5.40;4.32;;;;;;;-142.25;100.00;58004.16;5012881;28;20499;-61
2022/06/07 02:38:38;;;;;;;4.70;4.30;;;;;;;-142.25;100.00;58004.16;5013005;28;20036;-61
2022/06/07 02:41:07;;;;;;;10.63;4.32;;;;;;;-142.25;100.00;58004.16;5015689;28;20427;-61
2022/06/07 02:43:33;;;;;;;4.03;3.80;;;;;;;-142.25;100.00;58004.16;5014607;28;20026;-61
2022/06/07 02:45:58;;;;;;;4.68;4.38;;;;;;;-142.25;100.00;58004.16;5002655;28;20076;-61
2022/06/07 02:48:24;;;;;;;4.60;4.30;;;;;;;-142.25;100.00;58004.16;5012326;28;20043;-61
2022/06/07 02:50:52;;;;;;;4.32;3.97;;;;;;;-142.25;100.00;58004.16;5011531;28;20092;-61
2022/06/07 02:53:18;;;;;;;4.95;4.63;;;;;;;-142.25;100.00;58004.16;5010725;28;20868;-60
2022/06/07 02:55:43;;;;;;;4.85;4.45;;;;;;;-142.25;100.00;58004.16;5011324;28;20033;-61
2022/06/07 02:58:08;;;;;;;5.28;4.85;;;;;;;-142.25;100.00;58004.16;5011886;28;20443;-61
2022/06/07 03:00:34;;;;;;;4.60;4.25;;;;;;;-142.25;100.00;58004.16;4997338;28;20057;-61
2022/06/07 03:02:59;;;;;;;5.03;4.47;;;;;;;-142.25;100.00;58004.16;5009536;28;20046;-63
2022/06/07 03:05:25;;;;;;;4.60;4.20;;;;;;;-142.25;100.00;58004.16;5010592;28;20224;-61
2022/06/07 03:07:50;;;;;;;5.82;5.38;;;;;;;-142.25;100.00;58004.16;5012216;28;20068;-61
2022/06/07 03:10:17;;;;;;;5.25;4.22;;;;;;;-142.25;100.00;58004.16;5012877;28;20500;-61
2022/06/07 03:12:43;;;;;;;5.20;4.80;;;;;;;-142.25;100.00;58004.16;5013798;28;20443;-61
2022/06/07 03:15:09;;;;;;;4.85;4.35;;;;;;;-142.25;100.00;58004.16;5010082;28;20080;-61
2022/06/07 03:17:35;;;;;;;4.95;4.00;;;;;;;-142.25;100.00;58004.16;5010675;28;20487;-61
2022/06/07 03:20:01;;;;;;;5.13;4.72;;;;;;;-142.25;100.00;58004.16;5010189;28;20079;-61
2022/06/07 03:22:26;;;;;;;4.53;4.20;;;;;;;-142.25;100.00;58004.16;5010360;28;20038;-61
2022/06/07 03:24:51;;;;;;;4.72;4.32;;;;;;;-142.25;100.00;58004.16;5009348;28;20120;-59
2022/06/07 03:27:17;;;;;;;4.60;4.20;;;;;;;-142.25;100.00;58004.16;5017170;28;20395;-59
2022/06/07 03:29:42;;;;;;;5.70;4.45;;;;;;;-142.25;100.00;58004.16;5018052;28;20042;-61
2022/06/07 03:32:08;;;;;;;4.78;4.45;;;;;;;-142.25;100.00;58004.16;5013275;28;20076;-59
2022/06/07 03:34:35;;;;;;;5.22;4.50;;;;;;;-142.25;100.00;58004.16;5008938;28;20169;-59
2022/06/07 03:37:01;;;;;;;4.10;3.80;;;;;;;-142.25;100.00;58004.16;5013561;28;20044;-59
2022/06/07 03:39:26;;;;;;;4.13;3.83;;;;;;;-142.25;100.00;58004.16;5014838;28;20038;-60
2022/06/07 03:41:52;;;;;;;4.88;4.50;;;;;;;-142.25;100.00;58004.16;5009730;28;20037;-60
2022/06/07 03:44:18;;;;;;;4.50;4.20;;;;;;;-142.25;100.00;58004.16;4995823;28;20065;-61
2022/06/07 03:46:45;;;;;;;5.22;4.38;;;;;;;-142.25;100.00;58004.16;5013713;28;20052;-59
2022/06/07 03:49:11;;;;;;;4.63;4.20;;;;;;;-142.25;100.00;58004.16;5008300;28;20057;-59
2022/06/07 03:51:36;;;;;;;4.13;3.83;;;;;;;-142.25;100.00;58004.16;5010013;28;20038;-59
2022/06/07 03:54:04;;;;;;;4.68;3.90;;;;;;;-142.25;100.00;58004.16;5008447;28;20368;-61
2022/06/07 03:56:29;;;;;;;5.40;4.28;;;;;;;-142.25;100.00;58004.16;5009628;28;20126;-58
2022/06/07 03:58:55;;;;;;;4.72;4.32;;;;;;;-142.25;100.00;58004.16;5014152;28;20117;-60
2022/06/07 04:01:23;;;;;;;4.72;4.32;;;;;;;-142.25;100.00;58004.16;5009780;28;20103;-61
2022/06/07 04:03:50;;;;;;;4.88;4.53;;;;;;;-142.25;100.00;58004.16;5010410;28;20476;-66
2022/06/07 04:06:24;;;;;;;4.57;4.28;;;;;;;-142.25;100.00;58004.16;5012175;28;20038;-60
2022/06/07 04:08:49;;;;;;;4.88;4.47;;;;;;;-142.25;100.00;58004.16;5008354;28;20033;-60
2022/06/07 04:11:18;;;;;;;4.40;4.10;;;;;;;-142.25;100.00;58004.16;5010355;28;20041;-59
2022/06/07 04:13:44;;;;;;;5.00;4.60;;;;;;;-142.25;100.00;58004.16;5012420;28;20030;-59
2022/06/07 04:16:12;;;;;;;5.63;4.15;;;;;;;-142.25;100.00;58004.16;5013833;28;20497;-60
2022/06/07 04:18:39;;;;;;;4.75;4.45;;;;;;;-142.25;100.00;58004.16;5011942;28;20030;-60
2022/06/07 04:21:05;;;;;;;4.60;4.30;;;;;;;-142.25;100.00;58004.16;5008853;28;20495;-60
2022/06/07 04:23:31;;;;;;;4.30;4.00;;;;;;;-142.25;100.00;58004.16;5009255;28;20036;-60
2022/06/07 04:25:56;;;;;;;4.22;3.80;;;;;;;-142.25;100.00;58004.16;5000169;28;20099;-60
2022/06/07 04:28:22;;;;;;;4.78;4.40;;;;;;;-142.25;100.00;58004.16;5008769;28;20479;-60
2022/06/07 04:30:49;;;;;;;4.28;3.97;;;;;;;-142.25;100.00;58004.16;5008856;28;20463;-60
2022/06/07 04:33:15;;;;;;;4.38;4.07;;;;;;;-142.25;100.00;58004.16;5012587;28;20030;-60
2022/06/07 04:35:45;;;;;;;4.20;3.90;;;;;;;-142.25;100.00;58004.16;5008720;28;20608;-60
2022/06/07 04:38:12;;;;;;;4.43;4.07;;;;;;;-142.25;100.00;58004.16;5008740;28;20029;-59
2022/06/07 04:40:39;;;;;;;3.50;3.28;;;;;;;-142.25;100.00;58004.16;5010160;28;20036;-60
2022/06/07 04:43:05;;;;;;;4.28;3.80;;;;;;;-142.25;100.00;58004.16;5012953;28;20129;-60
2022/06/07 04:45:31;;;;;;;4.40;4.10;;;;;;;-142.25;100.00;58004.16;5011052;28;20045;-60
2022/06/07 04:47:57;;;;;;;3.67;3.47;;;;;;;-142.25;100.00;58004.16;4998912;28;20048;-61
2022/06/07 04:50:22;;;;;;;3.50;3.30;;;;;;;-142.25;100.00;58004.16;5008407;28;20042;-59
2022/06/07 04:52:48;;;;;;;4.10;3.75;;;;;;;-142.25;100.00;58004.16;5008581;28;20327;-60
2022/06/07 04:55:14;;;;;;;3.58;3.28;;;;;;;-142.25;100.00;58004.16;5008946;28;20124;-60
2022/06/07 04:57:40;;;;;;;3.50;3.30;;;;;;;-142.25;100.00;58004.16;5009283;28;20121;-59
2022/06/07 05:00:08;;;;;;;3.70;3.40;;;;;;;-142.25;100.00;58004.16;5009740;28;20039;-61
2022/06/07 05:02:35;;;;;;;3.35;3.15;;;;;;;-142.25;100.00;58004.16;5008589;28;20072;-60
2022/06/07 05:05:02;;;;;;;3.35;3.05;;;;;;;-142.25;100.00;58004.16;5010403;28;20487;-60
2022/06/07 05:07:28;;;;;;;3.72;3.33;;;;;;;-142.25;100.00;58004.16;5011469;28;20037;-60
2022/06/07 05:09:53;;;;;;;3.83;3.38;;;;;;;-142.25;100.00;58004.16;5008029;28;20049;-60
2022/06/07 05:12:18;;;;;;;3.60;3.40;;;;;;;-142.25;100.00;58004.16;5008703;28;20577;-61
2022/06/07 05:14:44;;;;;;;5.07;3.20;;;;;;;-142.25;100.00;58004.16;5010308;28;20037;-59
2022/06/07 05:17:10;;;;;;;4.05;3.25;;;;;;;-142.25;100.00;58004.16;5013416;28;20033;-60
2022/06/07 05:19:36;;;;;;;3.63;3.30;;;;;;;-142.25;100.00;58004.16;5011309;28;20148;-59
2022/06/07 05:22:02;;;;;;;3.90;3.30;;;;;;;-142.25;100.00;58004.16;5008182;28;20044;-60
2022/06/07 05:24:27;;;;;;;5.25;3.88;;;;;;;-142.25;100.00;58004.16;5011411;28;20468;-60
2022/06/07 05:26:56;;;;;;;3.70;3.33;;;;;;;-142.25;100.00;58004.16;5013696;28;20034;-60
2022/06/07 05:29:44;;;;;;;4.25;3.88;;;;;;;-142.25;100.00;58004.16;5008884;28;20126;-60
2022/06/07 05:32:09;;;;;;;3.35;3.05;;;;;;;-142.25;100.00;58004.16;5009180;28;20271;-59
2022/06/07 05:34:35;;;;;;;3.95;3.65;;;;;;;-142.25;100.00;58004.16;5011196;28;20054;-60
2022/06/07 05:37:00;;;;;;;3.17;2.90;;;;;;;-142.25;100.00;58004.16;5013204;28;20030;-60
2022/06/07 05:39:28;;;;;;;3.63;3.33;;;;;;;-142.25;100.00;58004.16;5009310;28;20379;-59
2022/06/07 05:41:54;;;;;;;3.35;3.15;;;;;;;-142.25;100.00;58004.16;5008590;28;20037;-60
2022/06/07 05:44:21;;;;;;;3.67;3.38;;;;;;;-142.25;100.00;58004.16;5011815;28;20522;-60
2022/06/07 05:46:48;;;;;;;3.55;3.22;;;;;;;-142.25;100.00;58004.16;5008721;28;20117;-60
2022/06/07 05:49:15;;;;;;;5.45;3.80;;;;;;;-142.25;100.00;58004.16;5007152;28;20527;-61
2022/06/07 05:51:41;;;;;;;4.80;4.50;;;;;;;-142.25;100.00;58004.16;5008555;28;20040;-60
2022/06/07 05:54:07;;;;;;;4.40;3.58;;;;;;;-142.25;100.00;58004.16;5010899;28;20033;-61
2022/06/07 05:56:33;;;;;;;5.07;3.88;;;;;;;-142.25;100.00;58004.16;5007552;28;20041;-60
2022/06/07 05:58:59;;;;;;;5.10;3.80;;;;;;;-142.25;100.00;58004.16;5006701;28;20037;-60
2022/06/07 06:01:26;;;;;;;4.13;3.80;;;;;;;-142.25;100.00;58004.16;5008804;28;20045;-60
2022/06/07 06:03:52;;;;;;;4.25;3.95;;;;;;;-142.25;100.00;58004.16;5013622;28;20033;-60
2022/06/07 06:06:17;;;;;;;4.90;4.50;;;;;;;-142.25;100.00;58004.16;5013546;28;20387;-60
2022/06/07 06:11:28;;;;;;;5.47;4.90;;;;;;;-142.25;100.00;58004.16;5012677;28;20044;-60
2022/06/07 06:13:53;;;;;;;5.13;4.65;;;;;;;-142.25;100.00;58004.16;5016136;28;20041;-60
2022/06/07 06:16:21;;;;;;;5.07;4.70;;;;;;;-142.25;100.00;58004.16;5014532;28;20033;-61
2022/06/07 06:18:48;;;;;;;7.05;5.53;;;;;;;-142.25;100.00;58004.16;5013090;28;20176;-61
2022/06/07 06:21:15;;;;;;;5.80;5.20;;;;;;;-142.25;100.00;58004.16;5013142;28;20441;-61
2022/06/07 06:23:41;;;;;;;6.07;5.53;;;;;;;-142.25;100.00;58004.16;5003141;28;20395;-61
2022/06/07 06:26:11;;;;;;;5.13;4.18;;;;;;;-142.25;100.00;58004.16;5011858;28;20514;-61
2022/06/07 06:28:37;;;;;;;6.20;5.55;;;;;;;-142.25;100.00;58004.16;5012279;28;20068;-62
2022/06/07 06:31:05;;;;;;;5.30;4.35;;;;;;;-142.25;100.00;58004.16;5010942;28;20507;-60
2022/06/07 06:33:35;;;;;;;6.60;5.10;;;;;;;-142.25;100.00;58004.16;5010069;28;20034;-60
2022/06/07 06:36:00;;;;;;;5.10;4.63;;;;;;;-142.25;100.00;58004.16;4996548;28;20053;-60
2022/06/07 06:38:26;;;;;;;5.28;4.78;;;;;;;-142.25;100.00;58004.16;5010226;28;20037;-60
2022/06/07 06:40:51;;;;;;;6.40;4.10;;;;;;;-142.25;100.00;58004.16;5013018;28;20038;-61
2022/06/07 06:43:17;;;;;;;5.07;4.68;;;;;;;-142.25;100.00;58004.16;5010332;28;20033;-61
2022/06/07 06:45:44;;;;;;;5.28;4.88;;;;;;;-142.25;100.00;58004.16;5010077;28;20589;-61
2022/06/07 06:48:11;;;;;;;4.43;4.13;;;;;;;-142.25;100.00;58004.16;5013305;28;20115;-62
2022/06/07 06:50:38;;;;;;;5.38;4.82;;;;;;;-142.25;100.00;58004.16;5015086;28;20045;-62
2022/06/07 06:53:04;;;;;;;5.03;4.63;;;;;;;-142.25;100.00;58004.16;5016095;28;20037;-61
2022/06/07 06:55:30;;;;;;;5.65;5.22;;;;;;;-142.25;100.00;58004.16;4993137;28;20036;-62
2022/06/07 06:57:56;;;;;;;5.50;4.30;;;;;;;-142.25;100.00;58004.16;5011203;28;20041;-60
2022/06/07 07:00:22;;;;;;;6.47;5.97;;;;;;;-142.25;100.00;58004.16;4998548;28;20471;-63
2022/06/07 07:02:48;;;;;;;7.05;5.55;;;;;;;-142.25;100.00;58004.16;5013694;28;20100;-61
2022/06/07 07:05:16;;;;;;;6.07;5.55;;;;;;;-142.25;100.00;58004.16;5011014;28;20915;-61
2022/06/07 07:07:43;;;;;;;6.13;5.60;;;;;;;-142.25;100.00;58004.16;5013933;28;20040;-61
2022/06/07 07:10:10;;;;;;;5.85;5.40;;;;;;;-142.25;100.00;58004.16;5013247;28;20548;-62
2022/06/07 07:12:36;;;;;;;6.85;5.63;;;;;;;-142.25;100.00;58004.16;5013477;28;20041;-62
2022/06/07 07:15:03;;;;;;;6.05;5.15;;;;;;;-142.25;100.00;58004.16;5009013;28;20041;-62
2022/06/07 07:17:30;;;;;;;7.30;6.65;;;;;;;-142.25;100.00;58004.16;5009671;28;20559;-62
2022/06/07 07:19:55;;;;;;;8.30;6.40;;;;;;;-142.25;100.00;58004.16;5010929;28;20069;-62
2022/06/07 07:22:22;;;;;;;5.93;5.53;;;;;;;-142.25;100.00;58004.16;5010996;28;20171;-62
2022/06/07 07:24:48;;;;;;;6.22;5.78;;;;;;;-142.25;100.00;58004.16;5008767;28;20459;-62
2022/06/07 07:27:14;;;;;;;6.57;5.93;;;;;;;-142.25;100.00;58004.16;5001477;28;20040;-62
2022/06/07 07:29:39;;;;;;;6.18;5.75;;;;;;;-142.25;100.00;58004.16;5013534;28;20037;-62
2022/06/07 07:32:05;;;;;;;6.15;5.72;;;;;;;-142.25;100.00;58004.16;5011342;28;20586;-62
2022/06/07 07:34:30;;;;;;;7.47;6.80;;;;;;;-142.25;100.00;58004.16;5008115;28;20092;-61
2022/06/07 07:36:57;;;;;;;6.60;6.07;;;;;;;-142.25;100.00;58004.16;5009496;28;20034;-61
2022/06/07 07:39:24;;;;;;;6.88;6.28;;;;;;;-142.25;100.00;58004.16;5010289;28;20337;-62
2022/06/07 07:41:51;;;;;;;6.68;6.15;;;;;;;-142.25;100.00;58004.16;5010497;28;20037;-62
2022/06/07 07:44:17;;;;;;;10.23;7.82;;;;;;;-142.25;100.00;58004.16;5012439;28;20030;-62
2022/06/07 07:46:44;;;;;;;7.20;6.70;;;;;;;-142.25;100.00;58004.16;5010889;28;20578;-62
2022/06/07 07:49:12;;;;;;;7.95;6.40;;;;;;;-142.25;100.00;58004.16;5009707;28;20033;-63
2022/06/07 07:51:40;;;;;;;6.88;6.35;;;;;;;-142.25;100.00;58004.16;5011151;28;20387;-62
2022/06/07 07:54:08;;;;;;;9.27;7.30;;;;;;;-142.25;100.00;58004.16;5009451;28;20962;-62
2022/06/07 07:56:35;;;;;;;9.50;8.60;;;;;;;-142.25;100.00;58004.16;5009083;28;20070;-62
2022/06/07 07:59:02;;;;;;;8.63;7.47;;;;;;;-142.25;100.00;58004.16;5010519;28;20196;-62
2022/06/07 08:01:28;;;;;;;10.60;8.60;;;;;;;-142.25;100.00;58004.16;5004477;28;20451;-62
2022/06/07 08:03:57;;;;;;;8.32;7.53;;;;;;;-142.25;100.00;58004.16;5016202;28;20773;-61
2022/06/07 08:06:24;;;;;;;8.93;8.15;;;;;;;-142.25;100.00;58004.16;5009635;28;20057;-62
2022/06/07 08:08:52;;;;;;;8.65;7.88;;;;;;;-142.25;100.00;58004.16;5012384;28;20112;-61
2022/06/07 08:11:21;;;;;;;8.75;8.10;;;;;;;-142.25;100.00;58004.16;5013651;28;20108;-61
2022/06/07 08:13:46;;;;;;;8.57;7.78;;;;;;;-142.25;100.00;58004.16;5009497;28;20038;-62
2022/06/07 08:16:13;;;;;;;8.05;7.25;;;;;;;-142.25;100.00;58004.16;5008050;28;20033;-62
2022/06/07 08:18:39;;;;;;;7.85;7.25;;;;;;;-142.25;100.00;58004.16;5011762;28;20052;-60
2022/06/07 08:21:08;;;;;;;8.52;7.80;;;;;;;-142.25;100.00;58004.16;5010174;28;20084;-60
2022/06/07 08:23:34;;;;;;;10.60;7.10;;;;;;;-142.25;100.00;58004.16;5007169;28;20045;-60
2022/06/07 08:26:01;;;;;;;8.15;7.22;;;;;;;-142.25;100.00;58004.16;5008134;28;20038;-60
2022/06/07 08:28:27;;;;;;;8.45;7.25;;;;;;;-142.25;100.00;58004.16;5011919;28;20978;-60
2022/06/07 08:30:52;;;;;;;8.82;7.90;;;;;;;-142.25;100.00;58004.16;5011919;28;20038;-60
2022/06/07 08:38:56;;;;;;;498.13;413.15;;;;;;;-142.25;100.00;58004.16;5012124;28;20057;-63
2022/06/07 08:41:26;;;;;;;17.35;15.52;;;;;;;-142.25;100.00;58004.16;5007845;28;20037;-63
2022/06/07 08:43:52;;;;;;;9.73;8.82;;;;;;;-142.25;100.00;58004.16;5009262;28;20480;-64
2022/06/07 08:46:22;;;;;;;11.93;8.70;;;;;;;-142.25;100.00;58004.16;5007620;28;20030;-63
2022/06/07 08:48:48;;;;;;;9.98;8.80;;;;;;;-142.25;100.00;58004.16;5008857;28;20109;-62
2022/06/07 08:51:34;;;;;;;8.63;7.32;;;;;;;-142.25;100.00;58004.16;5010341;28;20045;-60
2022/06/07 08:54:04;;;;;;;11.10;8.80;;;;;;;-142.25;100.00;58004.16;5008818;28;20253;-60
2022/06/07 08:56:33;;;;;;;8.50;7.65;;;;;;;-142.25;100.00;58004.16;5009425;28;20072;-60
2022/06/07 08:59:12;;;;;;;9.55;8.73;;;;;;;-142.25;100.00;58004.16;5007923;28;20084;-60
2022/06/07 09:02:05;;;;;;;9.88;8.43;;;;;;;-142.25;100.00;58004.16;5008640;28;20118;-60
2022/06/07 09:04:36;;;;;;;5.05;4.72;;;;;;;-142.25;100.00;58004.16;5009358;28;20025;-60
2022/06/07 09:07:12;;;;;;;6.38;5.60;;;;;;;-142.25;100.00;58004.16;5011736;28;20095;-60
2022/06/07 09:12:29;;;;;;;5.60;4.80;;;;;;;-142.25;100.00;58004.16;5007252;28;20399;-61
2022/06/07 09:15:11;;;;;;;4.20;4.00;;;;;;;-142.25;100.00;58004.16;5014140;28;20026;-60
2022/06/07 09:17:45;;;;;;;4.13;3.80;;;;;;;-142.25;100.00;58004.16;5012135;28;20163;-60
2022/06/07 09:20:20;;;;;;;3.72;3.50;;;;;;;-142.25;100.00;58004.16;5007807;28;20037;-60
2022/06/07 09:22:54;;;;;;;4.57;4.18;;;;;;;-142.25;100.00;58004.16;4997032;28;20042;-59
2022/06/07 09:25:37;;;;;;;;;;;;;;;-142.25;100.00;58004.16;5013271;28;20041;-60
2022/06/07 09:28:10;;;;;;;3.78;3.55;;;;;;;-142.25;100.00;58004.16;5010474;28;19970;-60
2022/06/07 09:30:45;;;;;;;5.00;4.70;;;;;;;-142.25;100.00;58004.16;4989857;28;20052;-60
2022/06/07 09:33:27;;;;;;;4.75;4.38;;;;;;;-142.25;100.00;58004.16;5010224;28;20069;-60
2022/06/07 09:35:57;;;;;;;5.07;4.75;;;;;;;-142.25;100.00;58004.16;5012390;28;20053;-60
2022/06/07 09:38:38;;;;;;;5.13;4.65;;;;;;;-142.25;100.00;58004.16;5009514;28;20073;-60
2022/06/07 09:41:36;;;;;;;4.50;4.10;;;;;;;-142.25;100.00;58004.16;5014390;28;20186;-60
2022/06/07 09:44:00;;;;;;;4.57;4.28;;;;;;;-142.25;100.00;58004.16;5015143;28;20080;-60
2022/06/07 09:46:26;;;;;;;3.95;3.75;;;;;;;-142.25;100.00;58004.16;5015084;28;20160;-59
2022/06/07 09:48:51;;;;;;;3.78;3.38;;;;;;;-142.25;100.00;58004.16;5015832;28;20036;-60
2022/06/07 09:51:27;;;;;;;3.75;3.53;;;;;;;-142.25;100.00;58004.16;5016333;28;20041;-60
2022/06/07 09:53:55;;;;;;;3.72;3.55;;;;;;;-142.25;100.00;58004.16;5015725;28;20037;-60
2022/06/07 09:56:20;;;;;;;3.97;3.78;;;;;;;-142.25;100.00;58004.16;5005303;28;20472;-60
2022/06/07 09:59:18;;;;;;;5.30;3.15;;;;;;;-142.25;100.00;58004.16;5015791;28;20427;-59
2022/06/07 10:01:46;;;;;;;3.95;3.75;;;;;;;-142.25;100.00;58004.16;5018048;28;20061;-59
2022/06/07 10:04:30;;;;;;;4.03;3.72;;;;;;;-142.25;100.00;58004.16;5017010;28;20075;-59
2022/06/07 10:07:03;;;;;;;4.50;4.15;;;;;;;-142.25;100.00;58004.16;5013997;28;20045;-60
2022/06/07 10:09:49;;;;;;;3.97;3.63;;;;;;;-142.25;100.00;58004.16;5015406;28;20059;-58
2022/06/07 10:12:20;;;;;;;4.63;4.15;;;;;;;-142.25;100.00;58004.16;5019613;28;20117;-60
2022/06/07 10:14:59;;;;;;;4.45;4.15;;;;;;;-142.25;100.00;58004.16;5017123;28;20082;-60
2022/06/07 10:17:46;;;;;;;4.28;3.95;;;;;;;-142.25;100.00;58004.16;5014845;28;20120;-59
2022/06/07 10:20:51;;;;;;;4.07;3.80;;;;;;;-142.25;100.00;58004.16;5017770;28;20033;-61
2022/06/07 10:23:46;;;;;;;5.38;4.60;;;;;;;-142.25;100.00;58004.16;4974755;28;20052;-60
2022/06/07 10:26:28;;;;;;;4.28;3.97;;;;;;;-142.25;100.00;58004.16;5014598;28;20045;-60
2022/06/07 10:29:18;;;;;;;3.90;3.70;;;;;;;-142.25;100.00;58004.16;5017018;28;20029;-60
2022/06/07 10:31:47;;;;;;;4.95;4.60;;;;;;;-142.25;100.00;58004.16;5018691;28;20103;-60
2022/06/07 10:34:21;;;;;;;4.20;3.90;;;;;;;-142.25;100.00;58004.16;5014694;28;20121;-60
2022/06/07 10:36:58;;;;;;;4.35;4.05;;;;;;;-142.25;100.00;58004.16;5014445;28;20382;-60
2022/06/07 10:39:47;;;;;;;4.07;3.80;;;;;;;-142.25;100.00;58004.16;5015922;28;20041;-60
2022/06/07 10:42:34;;;;;;;5.75;4.80;;;;;;;-142.25;100.00;58004.16;5013560;28;20061;-60
2022/06/07 10:44:59;;;;;;;5.15;4.63;;;;;;;-142.25;100.00;58004.16;5014173;28;20030;-59
2022/06/07 10:47:28;;;;;;;5.32;4.82;;;;;;;-142.25;100.00;58004.16;5012389;28;20060;-59
2022/06/07 10:50:34;;;;;;;4.78;4.22;;;;;;;-142.25;100.00;58004.16;5012291;28;20077;-59
2022/06/07 10:53:08;;;;;;;5.25;4.85;;;;;;;-142.25;100.00;58004.16;4966910;28;20064;-59
2022/06/07 10:55:35;;;;;;;5.63;5.13;;;;;;;-142.25;100.00;58004.16;5012204;28;20052;-60
2022/06/07 10:58:00;;;;;;;5.82;5.43;;;;;;;-142.25;100.00;58004.16;5011480;28;20077;-59
2022/06/07 11:00:41;;;;;;;5.57;5.13;;;;;;;-142.25;100.00;58004.16;5010994;28;20137;-59
2022/06/07 11:03:12;;;;;;;5.38;4.97;;;;;;;-142.25;100.00;58004.16;5011023;28;20040;-59
2022/06/07 11:11:33;;;;;;;5.20;4.90;;;;;;;-142.25;100.00;58004.16;5012489;28;20036;-59
2022/06/07 11:14:05;;;;;;;6.22;5.13;;;;;;;-142.25;100.00;58004.16;5010128;28;20044;-59
2022/06/07 11:17:08;;;;;;;5.28;4.75;;;;;;;-142.25;100.00;58004.16;5009333;28;20525;-59
2022/06/07 11:19:33;;;;;;;5.80;5.30;;;;;;;-142.25;100.00;58004.16;5009857;28;20041;-59
2022/06/07 11:22:05;;;;;;;6.97;5.53;;;;;;;-142.25;100.00;58004.16;5009470;28;20190;-59
2022/06/07 11:24:34;;;;;;;6.32;5.82;;;;;;;-142.25;100.00;58004.16;5011674;28;20116;-59
2022/06/07 11:27:16;;;;;;;5.75;5.35;;;;;;;-142.25;100.00;58004.16;5030244;28;20403;-59
2022/06/07 11:29:41;;;;;;;6.28;5.15;;;;;;;-142.25;100.00;58004.16;5014149;28;20041;-59
2022/06/07 11:32:38;;;;;;;9.32;6.35;;;;;;;-142.25;100.00;58004.16;5009870;28;20136;-60
2022/06/07 11:35:41;;;;;;;6.20;5.78;;;;;;;-142.25;100.00;58004.16;4927756;29;20420;-59
2022/06/07 11:38:26;;;;;;;7.25;6.65;;;;;;;-142.25;100.00;58004.16;4929748;29;20455;-59
2022/06/07 11:41:36;;;;;;;5.22;4.82;;;;;;;-142.25;100.00;58004.16;4925992;29;20543;-58
2022/06/07 11:43:58;;;;;;;4.53;4.22;;;;;;;-142.25;100.00;58004.16;4926753;29;20658;-58
2022/06/07 11:46:40;;;;;;;5.35;4.95;;;;;;;-142.25;100.00;58004.16;4929163;29;20158;-59